Cobleskill, NY

4:33 PM EDT on August 04, 2015 (GMT -0400)
Cobleskill Richmondville | | Change Station
CLOSE
Current Station
Personal Weather Station
Location: Richmondville, NY
Elevation: 965 ft
Nearby Weather Stations

Elev 965 ft 42.65 °N, 74.53 °W | Updated 6 seconds ago

Overcast
Overcast
75.0 °F
Feels Like 76 °F
N
0.0
Wind Variable Wind from SW
Gusts 0.0 mph

Today
High -- | Low -- °F
--% Chance of Precip.
Yesterday
High -- | Low -- °F
Precip. -- in
5:52 AM 8:14 PM
Waning Gibbous, 74% visible
Pressure 29.83 in
Visibility 10.0 miles
Clouds Scattered Clouds 8000 ft
Heat Index 76 °F
Dew Point 66 °F
Humidity 73%
Rainfall 0.20 in
Snow Depth Not available.
UV 8 out of 12
Pollen 7.40 out of 12
Air Quality Not available.
Flu Activity Not available.
METAR KSCH 041747Z 30015G20KT 10SM SCT080 27/14 A2983

More Conditions Fewer Conditions

Pressure 29.83 in
Visibility 10.0 miles
Clouds Scattered Clouds 8000 ft
Heat Index 76 °F
Dew Point 66 °F
Humidity 73%
Rainfall 0.20 in
Snow Depth Not available.
UV 8 out of 12
Pollen 7.40 out of 12
Air Quality Not available.
Flu Activity Not available.
METAR KSCH 041747Z 30015G20KT 10SM SCT080 27/14 A2983

More Conditions Fewer Conditions

10-Day Weather Forecast

×

Almanac

Astronomy

Aug. 04, 2015 Rise Set
Actual Time
Civil Twilight
Nautical Twilight
Astronomical Twilight
Moon
Length of Visible Light
Length of Day
Tomorrow will be .
, % of the Moon is Illuminated

Today's Extremes

State Highs State Lows

Community

WunderPhotos

Upload Photos

1,843,971 photos uploaded!

WunderBlogs® & News

Nearby

Air Quality

  Air Quality AQ Index Pollutant
Not available.

Snow Depth

Station Depth Elevation

Earthquake Activity

City Distance Mag. Time & Date
Minimum magnitude displayed is 2.5.

Coastal Water Temperatures

Place Temperature

Stations

Nearby Weather Stations

Station Location Temp. Windchill Dew Point Humidity Wind Precip. Elev Updated Type